sensor_id;sensor_type;location;lat;lon;timestamp;P1;durP1;ratioP1;P2;durP2;ratioP2
66927;SDS011;59882;45.624;11.698;2023-05-07T00:02:04;17.07;;;13.70;;
66927;SDS011;59882;45.624;11.698;2023-05-07T00:04:29;16.88;;;13.85;;
66927;SDS011;59882;45.624;11.698;2023-05-07T00:07:01;19.37;;;13.83;;
66927;SDS011;59882;45.624;11.698;2023-05-07T00:09:27;18.27;;;14.52;;
66927;SDS011;59882;45.624;11.698;2023-05-07T00:11:53;17.10;;;14.55;;
66927;SDS011;59882;45.624;11.698;2023-05-07T00:14:18;18.07;;;14.83;;
66927;SDS011;59882;45.624;11.698;2023-05-07T00:16:44;19.23;;;14.20;;
66927;SDS011;59882;45.624;11.698;2023-05-07T00:19:09;20.87;;;14.07;;
66927;SDS011;59882;45.624;11.698;2023-05-07T00:21:35;16.37;;;13.30;;
66927;SDS011;59882;45.624;11.698;2023-05-07T00:24:01;17.98;;;13.40;;
66927;SDS011;59882;45.624;11.698;2023-05-07T00:26:26;17.03;;;13.40;;
66927;SDS011;59882;45.624;11.698;2023-05-07T00:28:52;20.83;;;14.57;;
66927;SDS011;59882;45.624;11.698;2023-05-07T00:31:17;18.70;;;16.23;;
66927;SDS011;59882;45.624;11.698;2023-05-07T00:33:43;21.53;;;14.70;;
66927;SDS011;59882;45.624;11.698;2023-05-07T00:36:09;18.60;;;15.68;;
66927;SDS011;59882;45.624;11.698;2023-05-07T00:38:34;20.27;;;16.10;;
66927;SDS011;59882;45.624;11.698;2023-05-07T00:41:00;18.17;;;14.93;;
66927;SDS011;59882;45.624;11.698;2023-05-07T00:43:27;20.83;;;15.50;;
66927;SDS011;59882;45.624;11.698;2023-05-07T00:45:53;20.20;;;16.85;;
66927;SDS011;59882;45.624;11.698;2023-05-07T00:48:19;20.55;;;15.27;;
66927;SDS011;59882;45.624;11.698;2023-05-07T00:50:45;25.98;;;17.30;;
66927;SDS011;59882;45.624;11.698;2023-05-07T00:53:12;21.70;;;17.97;;
66927;SDS011;59882;45.624;11.698;2023-05-07T00:55:38;19.48;;;16.45;;
66927;SDS011;59882;45.624;11.698;2023-05-07T00:58:04;19.40;;;15.50;;
66927;SDS011;59882;45.624;11.698;2023-05-07T01:00:30;19.95;;;16.20;;
66927;SDS011;59882;45.624;11.698;2023-05-07T01:02:56;21.00;;;17.67;;
66927;SDS011;59882;45.624;11.698;2023-05-07T01:05:22;21.10;;;16.38;;
66927;SDS011;59882;45.624;11.698;2023-05-07T01:07:50;25.27;;;18.10;;
66927;SDS011;59882;45.624;11.698;2023-05-07T01:10:17;26.98;;;18.02;;
66927;SDS011;59882;45.624;11.698;2023-05-07T01:12:43;26.47;;;18.47;;
66927;SDS011;59882;45.624;11.698;2023-05-07T01:15:10;22.88;;;17.02;;
66927;SDS011;59882;45.624;11.698;2023-05-07T01:17:37;25.05;;;17.67;;
66927;SDS011;59882;45.624;11.698;2023-05-07T01:20:05;27.85;;;18.88;;
66927;SDS011;59882;45.624;11.698;2023-05-07T01:22:35;26.13;;;18.52;;
66927;SDS011;59882;45.624;11.698;2023-05-07T01:25:05;23.23;;;18.27;;
66927;SDS011;59882;45.624;11.698;2023-05-07T01:27:32;25.83;;;17.55;;
66927;SDS011;59882;45.624;11.698;2023-05-07T01:30:02;25.23;;;17.63;;
66927;SDS011;59882;45.624;11.698;2023-05-07T01:32:29;23.50;;;17.60;;
66927;SDS011;59882;45.624;11.698;2023-05-07T01:35:03;21.00;;;16.70;;
66927;SDS011;59882;45.624;11.698;2023-05-07T01:37:31;28.37;;;17.87;;
66927;SDS011;59882;45.624;11.698;2023-05-07T01:39:57;20.70;;;17.52;;
66927;SDS011;59882;45.624;11.698;2023-05-07T01:42:23;20.95;;;18.10;;
66927;SDS011;59882;45.624;11.698;2023-05-07T01:44:49;22.05;;;18.75;;
66927;SDS011;59882;45.624;11.698;2023-05-07T01:47:15;23.57;;;17.77;;
66927;SDS011;59882;45.624;11.698;2023-05-07T01:49:41;22.73;;;17.92;;
66927;SDS011;59882;45.624;11.698;2023-05-07T01:52:07;23.07;;;17.33;;
66927;SDS011;59882;45.624;11.698;2023-05-07T01:54:34;24.58;;;19.67;;
66927;SDS011;59882;45.624;11.698;2023-05-07T01:57:00;23.30;;;19.05;;
66927;SDS011;59882;45.624;11.698;2023-05-07T01:59:26;23.37;;;17.40;;
66927;SDS011;59882;45.624;11.698;2023-05-07T02:01:52;21.20;;;18.20;;
66927;SDS011;59882;45.624;11.698;2023-05-07T02:04:17;22.30;;;17.87;;
66927;SDS011;59882;45.624;11.698;2023-05-07T02:06:43;23.65;;;18.15;;
66927;SDS011;59882;45.624;11.698;2023-05-07T02:09:08;25.83;;;18.23;;
66927;SDS011;59882;45.624;11.698;2023-05-07T02:11:34;22.27;;;17.27;;
66927;SDS011;59882;45.624;11.698;2023-05-07T02:14:00;21.27;;;16.60;;
66927;SDS011;59882;45.624;11.698;2023-05-07T02:16:25;22.40;;;17.70;;
66927;SDS011;59882;45.624;11.698;2023-05-07T02:18:51;20.57;;;17.37;;
66927;SDS011;59882;45.624;11.698;2023-05-07T02:21:17;20.27;;;17.77;;
66927;SDS011;59882;45.624;11.698;2023-05-07T02:23:42;21.88;;;17.70;;
66927;SDS011;59882;45.624;11.698;2023-05-07T02:26:08;26.53;;;18.17;;
66927;SDS011;59882;45.624;11.698;2023-05-07T02:28:34;24.48;;;19.05;;
66927;SDS011;59882;45.624;11.698;2023-05-07T02:31:02;23.20;;;17.05;;
66927;SDS011;59882;45.624;11.698;2023-05-07T02:33:28;22.50;;;18.08;;
66927;SDS011;59882;45.624;11.698;2023-05-07T02:35:54;24.57;;;17.30;;
66927;SDS011;59882;45.624;11.698;2023-05-07T02:38:20;21.17;;;16.52;;
66927;SDS011;59882;45.624;11.698;2023-05-07T02:40:45;24.53;;;18.53;;
66927;SDS011;59882;45.624;11.698;2023-05-07T02:43:11;23.37;;;17.43;;
66927;SDS011;59882;45.624;11.698;2023-05-07T02:45:36;22.93;;;18.47;;
66927;SDS011;59882;45.624;11.698;2023-05-07T02:48:02;22.33;;;16.58;;
66927;SDS011;59882;45.624;11.698;2023-05-07T02:50:29;25.95;;;18.70;;
66927;SDS011;59882;45.624;11.698;2023-05-07T02:52:54;20.10;;;15.73;;
66927;SDS011;59882;45.624;11.698;2023-05-07T02:55:20;26.10;;;17.92;;
66927;SDS011;59882;45.624;11.698;2023-05-07T02:57:46;26.63;;;18.57;;
66927;SDS011;59882;45.624;11.698;2023-05-07T03:00:15;23.23;;;18.05;;
66927;SDS011;59882;45.624;11.698;2023-05-07T03:02:43;24.90;;;19.13;;
66927;SDS011;59882;45.624;11.698;2023-05-07T03:05:09;24.07;;;18.07;;
66927;SDS011;59882;45.624;11.698;2023-05-07T03:07:35;25.35;;;17.05;;
66927;SDS011;59882;45.624;11.698;2023-05-07T03:10:01;21.63;;;16.55;;
66927;SDS011;59882;45.624;11.698;2023-05-07T03:12:27;25.20;;;17.80;;
66927;SDS011;59882;45.624;11.698;2023-05-07T03:14:52;24.08;;;18.55;;
66927;SDS011;59882;45.624;11.698;2023-05-07T03:17:18;23.77;;;17.13;;
66927;SDS011;59882;45.624;11.698;2023-05-07T03:19:44;23.27;;;18.83;;
66927;SDS011;59882;45.624;11.698;2023-05-07T03:22:09;23.80;;;17.80;;
66927;SDS011;59882;45.624;11.698;2023-05-07T03:24:35;22.60;;;17.63;;
66927;SDS011;59882;45.624;11.698;2023-05-07T03:27:00;24.08;;;16.67;;
66927;SDS011;59882;45.624;11.698;2023-05-07T03:29:26;25.43;;;17.70;;
66927;SDS011;59882;45.624;11.698;2023-05-07T03:31:52;25.88;;;18.02;;
66927;SDS011;59882;45.624;11.698;2023-05-07T03:34:17;26.33;;;18.50;;
66927;SDS011;59882;45.624;11.698;2023-05-07T03:36:47;26.58;;;18.13;;
66927;SDS011;59882;45.624;11.698;2023-05-07T03:39:15;21.77;;;16.70;;
66927;SDS011;59882;45.624;11.698;2023-05-07T03:41:41;27.90;;;18.33;;
66927;SDS011;59882;45.624;11.698;2023-05-07T03:44:07;22.57;;;17.60;;
66927;SDS011;59882;45.624;11.698;2023-05-07T03:46:33;24.40;;;17.83;;
66927;SDS011;59882;45.624;11.698;2023-05-07T03:48:58;22.83;;;16.25;;
66927;SDS011;59882;45.624;11.698;2023-05-07T03:51:24;19.10;;;15.40;;
66927;SDS011;59882;45.624;11.698;2023-05-07T03:53:50;23.88;;;16.80;;
66927;SDS011;59882;45.624;11.698;2023-05-07T03:56:22;21.65;;;16.75;;
66927;SDS011;59882;45.624;11.698;2023-05-07T03:58:48;27.03;;;16.23;;
66927;SDS011;59882;45.624;11.698;2023-05-07T04:01:13;24.25;;;17.70;;
66927;SDS011;59882;45.624;11.698;2023-05-07T04:03:39;24.40;;;17.03;;
66927;SDS011;59882;45.624;11.698;2023-05-07T04:06:05;20.30;;;16.83;;
66927;SDS011;59882;45.624;11.698;2023-05-07T04:08:31;20.83;;;18.48;;
66927;SDS011;59882;45.624;11.698;2023-05-07T04:10:57;20.43;;;17.43;;
66927;SDS011;59882;45.624;11.698;2023-05-07T04:13:23;24.58;;;18.98;;
66927;SDS011;59882;45.624;11.698;2023-05-07T04:15:49;22.00;;;17.92;;
66927;SDS011;59882;45.624;11.698;2023-05-07T04:18:15;26.57;;;20.27;;
66927;SDS011;59882;45.624;11.698;2023-05-07T04:20:40;34.95;;;23.27;;
66927;SDS011;59882;45.624;11.698;2023-05-07T04:23:06;29.87;;;22.53;;
66927;SDS011;59882;45.624;11.698;2023-05-07T04:25:32;32.47;;;23.73;;
66927;SDS011;59882;45.624;11.698;2023-05-07T04:27:58;34.27;;;25.37;;
66927;SDS011;59882;45.624;11.698;2023-05-07T04:30:24;36.22;;;24.77;;
66927;SDS011;59882;45.624;11.698;2023-05-07T04:32:50;29.95;;;21.98;;
66927;SDS011;59882;45.624;11.698;2023-05-07T04:35:15;32.13;;;22.47;;
66927;SDS011;59882;45.624;11.698;2023-05-07T04:37:41;29.38;;;22.58;;
66927;SDS011;59882;45.624;11.698;2023-05-07T04:40:07;35.58;;;21.90;;
66927;SDS011;59882;45.624;11.698;2023-05-07T04:42:33;29.67;;;21.07;;
66927;SDS011;59882;45.624;11.698;2023-05-07T04:44:58;29.75;;;21.38;;
66927;SDS011;59882;45.624;11.698;2023-05-07T04:47:25;33.47;;;21.33;;
66927;SDS011;59882;45.624;11.698;2023-05-07T04:49:50;26.57;;;19.27;;
66927;SDS011;59882;45.624;11.698;2023-05-07T04:52:16;24.30;;;20.63;;
66927;SDS011;59882;45.624;11.698;2023-05-07T04:54:42;26.92;;;20.45;;
66927;SDS011;59882;45.624;11.698;2023-05-07T04:57:07;25.80;;;20.77;;
66927;SDS011;59882;45.624;11.698;2023-05-07T04:59:33;27.20;;;19.45;;
66927;SDS011;59882;45.624;11.698;2023-05-07T05:01:59;24.77;;;20.03;;
66927;SDS011;59882;45.624;11.698;2023-05-07T05:04:24;25.20;;;19.92;;
66927;SDS011;59882;45.624;11.698;2023-05-07T05:06:50;26.70;;;18.60;;
66927;SDS011;59882;45.624;11.698;2023-05-07T05:09:16;26.67;;;19.27;;
66927;SDS011;59882;45.624;11.698;2023-05-07T05:11:41;29.43;;;19.73;;
66927;SDS011;59882;45.624;11.698;2023-05-07T05:14:07;25.27;;;18.75;;
66927;SDS011;59882;45.624;11.698;2023-05-07T05:16:33;25.27;;;20.13;;
66927;SDS011;59882;45.624;11.698;2023-05-07T05:18:59;24.75;;;19.17;;
66927;SDS011;59882;45.624;11.698;2023-05-07T05:21:24;24.20;;;19.13;;
66927;SDS011;59882;45.624;11.698;2023-05-07T05:23:50;26.63;;;19.30;;
66927;SDS011;59882;45.624;11.698;2023-05-07T05:26:16;21.83;;;19.40;;
66927;SDS011;59882;45.624;11.698;2023-05-07T05:28:42;22.63;;;18.42;;
66927;SDS011;59882;45.624;11.698;2023-05-07T05:31:08;21.93;;;18.53;;
66927;SDS011;59882;45.624;11.698;2023-05-07T05:33:33;24.20;;;19.87;;
66927;SDS011;59882;45.624;11.698;2023-05-07T05:36:00;23.95;;;19.98;;
66927;SDS011;59882;45.624;11.698;2023-05-07T05:38:26;23.42;;;20.75;;
66927;SDS011;59882;45.624;11.698;2023-05-07T05:40:51;22.92;;;19.63;;
66927;SDS011;59882;45.624;11.698;2023-05-07T05:43:17;27.70;;;19.77;;
66927;SDS011;59882;45.624;11.698;2023-05-07T05:45:43;23.75;;;19.02;;
66927;SDS011;59882;45.624;11.698;2023-05-07T05:48:09;31.70;;;19.97;;
66927;SDS011;59882;45.624;11.698;2023-05-07T05:50:34;26.58;;;17.88;;
66927;SDS011;59882;45.624;11.698;2023-05-07T05:53:03;21.57;;;17.20;;
66927;SDS011;59882;45.624;11.698;2023-05-07T05:55:29;20.42;;;16.98;;
66927;SDS011;59882;45.624;11.698;2023-05-07T05:57:57;24.70;;;15.80;;
66927;SDS011;59882;45.624;11.698;2023-05-07T06:00:23;21.27;;;16.42;;
66927;SDS011;59882;45.624;11.698;2023-05-07T06:02:49;20.50;;;15.70;;
66927;SDS011;59882;45.624;11.698;2023-05-07T06:05:15;16.23;;;13.17;;
66927;SDS011;59882;45.624;11.698;2023-05-07T06:07:40;15.68;;;14.05;;
66927;SDS011;59882;45.624;11.698;2023-05-07T06:10:06;21.97;;;13.50;;
66927;SDS011;59882;45.624;11.698;2023-05-07T06:12:32;16.05;;;13.50;;
66927;SDS011;59882;45.624;11.698;2023-05-07T06:14:58;18.33;;;13.23;;
66927;SDS011;59882;45.624;11.698;2023-05-07T06:17:24;17.05;;;13.93;;
66927;SDS011;59882;45.624;11.698;2023-05-07T06:19:50;17.05;;;13.55;;
66927;SDS011;59882;45.624;11.698;2023-05-07T06:22:17;15.70;;;12.87;;
66927;SDS011;59882;45.624;11.698;2023-05-07T06:24:42;15.77;;;13.30;;
66927;SDS011;59882;45.624;11.698;2023-05-07T06:27:08;18.00;;;12.82;;
66927;SDS011;59882;45.624;11.698;2023-05-07T06:29:34;13.37;;;11.50;;
66927;SDS011;59882;45.624;11.698;2023-05-07T06:32:10;14.77;;;11.77;;
66927;SDS011;59882;45.624;11.698;2023-05-07T06:34:36;16.20;;;11.80;;
66927;SDS011;59882;45.624;11.698;2023-05-07T06:37:03;16.10;;;12.38;;
66927;SDS011;59882;45.624;11.698;2023-05-07T06:39:29;13.57;;;11.60;;
66927;SDS011;59882;45.624;11.698;2023-05-07T06:41:55;14.13;;;12.63;;
66927;SDS011;59882;45.624;11.698;2023-05-07T06:44:20;14.98;;;12.98;;
66927;SDS011;59882;45.624;11.698;2023-05-07T06:46:46;15.43;;;12.97;;
66927;SDS011;59882;45.624;11.698;2023-05-07T06:49:12;18.63;;;13.17;;
66927;SDS011;59882;45.624;11.698;2023-05-07T06:51:38;13.97;;;12.33;;
66927;SDS011;59882;45.624;11.698;2023-05-07T06:54:04;17.67;;;13.73;;
66927;SDS011;59882;45.624;11.698;2023-05-07T06:56:30;18.38;;;13.23;;
66927;SDS011;59882;45.624;11.698;2023-05-07T06:58:56;15.50;;;12.73;;
66927;SDS011;59882;45.624;11.698;2023-05-07T07:01:22;14.32;;;12.32;;
66927;SDS011;59882;45.624;11.698;2023-05-07T07:03:48;17.17;;;12.50;;
66927;SDS011;59882;45.624;11.698;2023-05-07T07:06:14;17.10;;;12.00;;
66927;SDS011;59882;45.624;11.698;2023-05-07T07:08:40;14.10;;;12.43;;
66927;SDS011;59882;45.624;11.698;2023-05-07T07:11:06;14.20;;;11.70;;
66927;SDS011;59882;45.624;11.698;2023-05-07T07:13:32;13.90;;;12.10;;
66927;SDS011;59882;45.624;11.698;2023-05-07T07:15:58;17.15;;;12.50;;
66927;SDS011;59882;45.624;11.698;2023-05-07T07:18:25;17.92;;;12.23;;
66927;SDS011;59882;45.624;11.698;2023-05-07T07:20:51;15.00;;;12.67;;
66927;SDS011;59882;45.624;11.698;2023-05-07T07:23:17;16.90;;;11.55;;
66927;SDS011;59882;45.624;11.698;2023-05-07T07:25:42;16.73;;;12.73;;
66927;SDS011;59882;45.624;11.698;2023-05-07T07:30:58;16.90;;;13.60;;
66927;SDS011;59882;45.624;11.698;2023-05-07T07:33:24;15.13;;;13.52;;
66927;SDS011;59882;45.624;11.698;2023-05-07T07:35:49;15.80;;;12.97;;
66927;SDS011;59882;45.624;11.698;2023-05-07T07:38:15;15.18;;;13.23;;
66927;SDS011;59882;45.624;11.698;2023-05-07T07:40:41;14.83;;;13.20;;
66927;SDS011;59882;45.624;11.698;2023-05-07T07:43:08;13.70;;;12.10;;
66927;SDS011;59882;45.624;11.698;2023-05-07T07:45:34;16.17;;;13.55;;
66927;SDS011;59882;45.624;11.698;2023-05-07T07:48:00;19.10;;;12.53;;
66927;SDS011;59882;45.624;11.698;2023-05-07T07:50:26;14.43;;;12.63;;
66927;SDS011;59882;45.624;11.698;2023-05-07T07:52:52;14.75;;;12.10;;
66927;SDS011;59882;45.624;11.698;2023-05-07T07:55:19;13.93;;;12.07;;
66927;SDS011;59882;45.624;11.698;2023-05-07T07:57:48;12.80;;;11.17;;
66927;SDS011;59882;45.624;11.698;2023-05-07T08:00:15;12.55;;;11.15;;
66927;SDS011;59882;45.624;11.698;2023-05-07T08:02:41;14.82;;;13.10;;
66927;SDS011;59882;45.624;11.698;2023-05-07T08:05:07;15.93;;;12.63;;
66927;SDS011;59882;45.624;11.698;2023-05-07T08:07:34;14.73;;;12.23;;
66927;SDS011;59882;45.624;11.698;2023-05-07T08:09:59;14.18;;;12.68;;
66927;SDS011;59882;45.624;11.698;2023-05-07T08:12:25;14.03;;;11.90;;
66927;SDS011;59882;45.624;11.698;2023-05-07T08:14:51;15.68;;;12.07;;
66927;SDS011;59882;45.624;11.698;2023-05-07T08:17:16;16.43;;;11.47;;
66927;SDS011;59882;45.624;11.698;2023-05-07T08:19:42;14.70;;;12.02;;
66927;SDS011;59882;45.624;11.698;2023-05-07T08:22:09;13.10;;;11.77;;
66927;SDS011;59882;45.624;11.698;2023-05-07T08:24:35;15.77;;;11.85;;
66927;SDS011;59882;45.624;11.698;2023-05-07T08:27:01;14.03;;;11.60;;
66927;SDS011;59882;45.624;11.698;2023-05-07T08:29:27;15.93;;;12.18;;
66927;SDS011;59882;45.624;11.698;2023-05-07T08:31:52;15.50;;;12.63;;
66927;SDS011;59882;45.624;11.698;2023-05-07T08:34:18;13.73;;;12.32;;
66927;SDS011;59882;45.624;11.698;2023-05-07T08:36:44;14.97;;;13.37;;
66927;SDS011;59882;45.624;11.698;2023-05-07T08:39:13;15.00;;;13.48;;
66927;SDS011;59882;45.624;11.698;2023-05-07T08:41:40;14.63;;;12.27;;
66927;SDS011;59882;45.624;11.698;2023-05-07T08:44:08;14.73;;;12.20;;
66927;SDS011;59882;45.624;11.698;2023-05-07T08:46:39;16.98;;;13.25;;
66927;SDS011;59882;45.624;11.698;2023-05-07T08:49:06;14.97;;;13.17;;
66927;SDS011;59882;45.624;11.698;2023-05-07T08:51:32;14.13;;;12.00;;
66927;SDS011;59882;45.624;11.698;2023-05-07T08:53:58;14.57;;;11.57;;
66927;SDS011;59882;45.624;11.698;2023-05-07T08:56:26;14.57;;;12.63;;
66927;SDS011;59882;45.624;11.698;2023-05-07T08:58:52;13.55;;;12.05;;
66927;SDS011;59882;45.624;11.698;2023-05-07T09:01:21;15.07;;;13.40;;
66927;SDS011;59882;45.624;11.698;2023-05-07T09:03:47;14.75;;;12.98;;
66927;SDS011;59882;45.624;11.698;2023-05-07T09:06:13;14.07;;;12.57;;
66927;SDS011;59882;45.624;11.698;2023-05-07T09:08:39;14.23;;;12.13;;
66927;SDS011;59882;45.624;11.698;2023-05-07T09:11:04;15.30;;;12.23;;
66927;SDS011;59882;45.624;11.698;2023-05-07T09:13:30;13.97;;;12.03;;
66927;SDS011;59882;45.624;11.698;2023-05-07T09:15:56;14.95;;;12.52;;
66927;SDS011;59882;45.624;11.698;2023-05-07T09:18:23;14.23;;;11.13;;
66927;SDS011;59882;45.624;11.698;2023-05-07T09:20:50;14.77;;;12.90;;
66927;SDS011;59882;45.624;11.698;2023-05-07T09:23:16;14.27;;;12.63;;
66927;SDS011;59882;45.624;11.698;2023-05-07T09:25:41;15.00;;;11.33;;
66927;SDS011;59882;45.624;11.698;2023-05-07T09:28:07;15.07;;;11.43;;
66927;SDS011;59882;45.624;11.698;2023-05-07T09:30:35;19.10;;;12.43;;
66927;SDS011;59882;45.624;11.698;2023-05-07T09:33:01;11.77;;;10.43;;
66927;SDS011;59882;45.624;11.698;2023-05-07T09:35:28;15.63;;;11.30;;
66927;SDS011;59882;45.624;11.698;2023-05-07T09:37:55;12.32;;;10.98;;
66927;SDS011;59882;45.624;11.698;2023-05-07T09:40:22;15.53;;;11.33;;
66927;SDS011;59882;45.624;11.698;2023-05-07T09:42:49;16.73;;;12.52;;
66927;SDS011;59882;45.624;11.698;2023-05-07T09:45:15;13.07;;;11.52;;
66927;SDS011;59882;45.624;11.698;2023-05-07T09:47:46;13.57;;;11.07;;
66927;SDS011;59882;45.624;11.698;2023-05-07T09:50:14;14.18;;;12.52;;
66927;SDS011;59882;45.624;11.698;2023-05-07T09:52:41;13.87;;;12.37;;
66927;SDS011;59882;45.624;11.698;2023-05-07T09:55:09;14.07;;;10.85;;
66927;SDS011;59882;45.624;11.698;2023-05-07T09:57:35;15.05;;;13.45;;
66927;SDS011;59882;45.624;11.698;2023-05-07T10:00:02;18.08;;;12.85;;
66927;SDS011;59882;45.624;11.698;2023-05-07T10:02:33;14.50;;;13.00;;
66927;SDS011;59882;45.624;11.698;2023-05-07T10:05:01;12.87;;;11.50;;
66927;SDS011;59882;45.624;11.698;2023-05-07T10:07:28;13.85;;;11.68;;
66927;SDS011;59882;45.624;11.698;2023-05-07T10:09:55;15.73;;;12.90;;
66927;SDS011;59882;45.624;11.698;2023-05-07T10:12:21;15.52;;;12.57;;
66927;SDS011;59882;45.624;11.698;2023-05-07T10:14:46;13.67;;;12.27;;
66927;SDS011;59882;45.624;11.698;2023-05-07T10:17:13;13.93;;;12.00;;
66927;SDS011;59882;45.624;11.698;2023-05-07T10:19:43;14.60;;;9.73;;
66927;SDS011;59882;45.624;11.698;2023-05-07T10:22:09;12.77;;;9.70;;
66927;SDS011;59882;45.624;11.698;2023-05-07T10:24:36;13.50;;;10.00;;
66927;SDS011;59882;45.624;11.698;2023-05-07T10:27:04;13.55;;;10.50;;
66927;SDS011;59882;45.624;11.698;2023-05-07T10:32:49;11.88;;;10.10;;
66927;SDS011;59882;45.624;11.698;2023-05-07T10:35:11;12.35;;;10.88;;
66927;SDS011;59882;45.624;11.698;2023-05-07T10:37:42;12.15;;;10.85;;
66927;SDS011;59882;45.624;11.698;2023-05-07T10:40:10;14.20;;;11.23;;
66927;SDS011;59882;45.624;11.698;2023-05-07T10:42:36;14.07;;;11.33;;
66927;SDS011;59882;45.624;11.698;2023-05-07T10:45:12;12.70;;;11.40;;
66927;SDS011;59882;45.624;11.698;2023-05-07T10:50:40;16.67;;;11.60;;
66927;SDS011;59882;45.624;11.698;2023-05-07T11:00:46;15.65;;;13.13;;
66927;SDS011;59882;45.624;11.698;2023-05-07T11:03:13;24.40;;;11.97;;
66927;SDS011;59882;45.624;11.698;2023-05-07T11:05:40;12.55;;;10.90;;
66927;SDS011;59882;45.624;11.698;2023-05-07T11:08:07;12.20;;;10.52;;
66927;SDS011;59882;45.624;11.698;2023-05-07T11:10:50;11.77;;;10.00;;
66927;SDS011;59882;45.624;11.698;2023-05-07T11:13:16;15.38;;;10.93;;
66927;SDS011;59882;45.624;11.698;2023-05-07T11:15:46;13.20;;;11.23;;
66927;SDS011;59882;45.624;11.698;2023-05-07T11:18:14;13.50;;;12.10;;
66927;SDS011;59882;45.624;11.698;2023-05-07T11:26:03;14.73;;;12.48;;
66927;SDS011;59882;45.624;11.698;2023-05-07T11:28:31;16.20;;;12.27;;
66927;SDS011;59882;45.624;11.698;2023-05-07T11:31:02;14.25;;;11.75;;
66927;SDS011;59882;45.624;11.698;2023-05-07T11:33:29;15.95;;;14.05;;
66927;SDS011;59882;45.624;11.698;2023-05-07T11:35:55;14.80;;;13.10;;
66927;SDS011;59882;45.624;11.698;2023-05-07T11:38:21;14.67;;;13.00;;
66927;SDS011;59882;45.624;11.698;2023-05-07T11:43:16;16.63;;;13.88;;
66927;SDS011;59882;45.624;11.698;2023-05-07T11:45:42;14.65;;;12.93;;
66927;SDS011;59882;45.624;11.698;2023-05-07T11:48:09;15.37;;;13.17;;
66927;SDS011;59882;45.624;11.698;2023-05-07T11:50:35;15.73;;;13.93;;
66927;SDS011;59882;45.624;11.698;2023-05-07T11:53:06;16.90;;;15.20;;
66927;SDS011;59882;45.624;11.698;2023-05-07T11:55:32;16.95;;;13.43;;
66927;SDS011;59882;45.624;11.698;2023-05-07T11:57:58;15.73;;;14.05;;
66927;SDS011;59882;45.624;11.698;2023-05-07T12:00:24;16.77;;;15.00;;
66927;SDS011;59882;45.624;11.698;2023-05-07T12:02:50;15.80;;;14.13;;
66927;SDS011;59882;45.624;11.698;2023-05-07T12:05:15;15.43;;;13.23;;
66927;SDS011;59882;45.624;11.698;2023-05-07T12:07:41;16.70;;;12.95;;
66927;SDS011;59882;45.624;11.698;2023-05-07T12:10:07;14.27;;;12.83;;
66927;SDS011;59882;45.624;11.698;2023-05-07T12:12:39;15.63;;;14.00;;
66927;SDS011;59882;45.624;11.698;2023-05-07T12:15:07;13.93;;;12.43;;
66927;SDS011;59882;45.624;11.698;2023-05-07T12:17:33;16.73;;;15.00;;
66927;SDS011;59882;45.624;11.698;2023-05-07T12:19:59;16.73;;;14.93;;
66927;SDS011;59882;45.624;11.698;2023-05-07T12:22:25;16.67;;;15.07;;
66927;SDS011;59882;45.624;11.698;2023-05-07T12:24:57;17.27;;;15.48;;
66927;SDS011;59882;45.624;11.698;2023-05-07T12:27:23;15.73;;;14.13;;
66927;SDS011;59882;45.624;11.698;2023-05-07T12:29:50;16.70;;;14.90;;
66927;SDS011;59882;45.624;11.698;2023-05-07T12:32:16;14.48;;;12.25;;
66927;SDS011;59882;45.624;11.698;2023-05-07T12:34:43;17.08;;;15.38;;
66927;SDS011;59882;45.624;11.698;2023-05-07T12:37:10;16.65;;;14.95;;
66927;SDS011;59882;45.624;11.698;2023-05-07T12:39:35;15.30;;;13.80;;
66927;SDS011;59882;45.624;11.698;2023-05-07T12:42:01;15.23;;;13.63;;
66927;SDS011;59882;45.624;11.698;2023-05-07T12:44:31;15.87;;;14.17;;
66927;SDS011;59882;45.624;11.698;2023-05-07T12:46:58;16.35;;;13.93;;
66927;SDS011;59882;45.624;11.698;2023-05-07T12:49:26;16.08;;;14.25;;
66927;SDS011;59882;45.624;11.698;2023-05-07T12:51:53;12.57;;;11.23;;
66927;SDS011;59882;45.624;11.698;2023-05-07T12:54:29;12.43;;;11.13;;
66927;SDS011;59882;45.624;11.698;2023-05-07T12:57:04;13.30;;;12.05;;
66927;SDS011;59882;45.624;11.698;2023-05-07T12:59:35;13.23;;;11.38;;
66927;SDS011;59882;45.624;11.698;2023-05-07T13:02:03;11.10;;;9.50;;
66927;SDS011;59882;45.624;11.698;2023-05-07T13:04:30;17.05;;;10.80;;
66927;SDS011;59882;45.624;11.698;2023-05-07T13:06:56;11.45;;;10.25;;
66927;SDS011;59882;45.624;11.698;2023-05-07T13:09:21;8.95;;;8.07;;
66927;SDS011;59882;45.624;11.698;2023-05-07T13:11:47;10.43;;;9.43;;
66927;SDS011;59882;45.624;11.698;2023-05-07T13:14:13;11.43;;;9.32;;
66927;SDS011;59882;45.624;11.698;2023-05-07T13:16:38;9.87;;;8.87;;
66927;SDS011;59882;45.624;11.698;2023-05-07T13:19:04;9.73;;;8.68;;
66927;SDS011;59882;45.624;11.698;2023-05-07T13:21:30;11.30;;;8.63;;
66927;SDS011;59882;45.624;11.698;2023-05-07T13:23:57;14.27;;;10.70;;
66927;SDS011;59882;45.624;11.698;2023-05-07T13:26:23;10.43;;;9.30;;
66927;SDS011;59882;45.624;11.698;2023-05-07T13:28:49;11.80;;;9.60;;
66927;SDS011;59882;45.624;11.698;2023-05-07T13:31:15;12.05;;;8.20;;
66927;SDS011;59882;45.624;11.698;2023-05-07T13:33:42;27.83;;;16.38;;
66927;SDS011;59882;45.624;11.698;2023-05-07T13:36:07;16.07;;;9.60;;
66927;SDS011;59882;45.624;11.698;2023-05-07T13:38:34;10.32;;;9.18;;
66927;SDS011;59882;45.624;11.698;2023-05-07T13:41:00;8.52;;;7.57;;
66927;SDS011;59882;45.624;11.698;2023-05-07T13:43:25;9.60;;;7.67;;
66927;SDS011;59882;45.624;11.698;2023-05-07T13:45:51;9.73;;;8.80;;
66927;SDS011;59882;45.624;11.698;2023-05-07T13:48:16;9.00;;;7.47;;
66927;SDS011;59882;45.624;11.698;2023-05-07T13:50:42;8.10;;;7.27;;
66927;SDS011;59882;45.624;11.698;2023-05-07T13:53:08;8.02;;;7.28;;
66927;SDS011;59882;45.624;11.698;2023-05-07T13:55:33;13.73;;;8.40;;
66927;SDS011;59882;45.624;11.698;2023-05-07T13:58:00;10.73;;;8.63;;
66927;SDS011;59882;45.624;11.698;2023-05-07T14:00:27;9.45;;;8.60;;
66927;SDS011;59882;45.624;11.698;2023-05-07T14:02:54;11.38;;;10.20;;
66927;SDS011;59882;45.624;11.698;2023-05-07T14:05:20;9.88;;;8.98;;
66927;SDS011;59882;45.624;11.698;2023-05-07T14:07:48;12.33;;;9.37;;
66927;SDS011;59882;45.624;11.698;2023-05-07T14:10:16;9.85;;;8.15;;
66927;SDS011;59882;45.624;11.698;2023-05-07T14:12:43;12.43;;;9.65;;
66927;SDS011;59882;45.624;11.698;2023-05-07T14:15:09;11.98;;;7.63;;
66927;SDS011;59882;45.624;11.698;2023-05-07T14:17:35;7.90;;;7.10;;
66927;SDS011;59882;45.624;11.698;2023-05-07T14:20:01;8.98;;;8.00;;
66927;SDS011;59882;45.624;11.698;2023-05-07T14:22:27;11.07;;;9.00;;
66927;SDS011;59882;45.624;11.698;2023-05-07T14:24:52;9.80;;;8.80;;
66927;SDS011;59882;45.624;11.698;2023-05-07T14:27:18;11.70;;;8.77;;
66927;SDS011;59882;45.624;11.698;2023-05-07T14:29:44;9.20;;;8.20;;
66927;SDS011;59882;45.624;11.698;2023-05-07T14:32:10;9.70;;;8.80;;